Scottsburg, IN

11:33 PM EST on November 25, 2014 (GMT -0500)
WR9G - NW Scott County | Change Station
CLOSE
Current Station
Personal Weather Station
Location: Austin, IN
Elevation: 552 ft
Nearby Weather Stations

Elev 552 ft 38.74 °N, 85.83 °W | Updated 9 seconds ago

Overcast
Overcast
30.7 °F
Feels Like 31 °F
N
0.0
Wind Variable Wind from NNE
Gusts 0.0 mph

Today
High -- | Low -- °F
--% Chance of Precip.
Yesterday
High -- | Low -- °F
Precip. -- in
7:36 AM 5:23 PM
Waxing Crescent, 16% visible
Pressure 30.21 in
Visibility 10.0 miles
Clouds Clear
Windchill 31 °F
Dew Point 26 °F
Humidity 82%
Rainfall 0.00 in
Snow Depth Not available.
UV 0 out of 12
Pollen .10 out of 12
Air Quality Not available.
Flu Activity Not available.
METAR KLOU 260353Z AUTO 34005KT 10SM CLR 01/M03 A3020 RMK AO2 SLP229 T00111028

More Conditions Fewer Conditions

Pressure 30.21 in
Visibility 10.0 miles
Clouds Clear
Windchill 31 °F
Dew Point 26 °F
Humidity 82%
Rainfall 0.00 in
Snow Depth Not available.
UV 0 out of 12
Pollen .10 out of 12
Air Quality Not available.
Flu Activity Not available.
METAR KLOU 260353Z AUTO 34005KT 10SM CLR 01/M03 A3020 RMK AO2 SLP229 T00111028

More Conditions Fewer Conditions

10-Day Weather Forecast

Almanac

Astronomy

Nov. 25, 2014 Rise Set
Actual Time
Civil Twilight
Nautical Twilight
Astronomical Twilight
Moon
Length of Visible Light
Length of Day
Tomorrow will be .
, % of the Moon is Illuminated

Today's Extremes

State Highs State Lows

Community

WunderPhotos

Upload Photos

1,773,684 photos uploaded!

WunderBlogs® & News

Nearby

Air Quality

  Air Quality AQ Index Pollutant
Not available.

Snow Depth

Station Depth Elevation

Earthquake Activity

City Distance Mag. Time & Date
Minimum magnitude displayed is 2.5.

Coastal Water Temperatures

Place Temperature

Nearby Weather Stations